sensor_id;sensor_type;location;lat;lon;timestamp;pressure;altitude;pressure_sealevel;temperature;humidity
16777;BME280;8505;49.456;8.164;2024-03-22T00:02:13;100480.66;;;8.88;100.00
16777;BME280;8505;49.456;8.164;2024-03-22T00:04:39;100474.66;;;8.86;100.00
16777;BME280;8505;49.456;8.164;2024-03-22T00:07:06;100476.22;;;8.70;100.00
16777;BME280;8505;49.456;8.164;2024-03-22T00:09:32;100478.44;;;8.74;100.00
16777;BME280;8505;49.456;8.164;2024-03-22T00:11:59;100475.50;;;8.77;100.00
16777;BME280;8505;49.456;8.164;2024-03-22T00:14:24;100468.16;;;8.71;100.00
16777;BME280;8505;49.456;8.164;2024-03-22T00:16:51;100462.31;;;8.68;100.00
16777;BME280;8505;49.456;8.164;2024-03-22T00:19:18;100464.97;;;8.68;100.00
16777;BME280;8505;49.456;8.164;2024-03-22T00:21:45;100472.63;;;8.61;100.00
16777;BME280;8505;49.456;8.164;2024-03-22T00:24:11;100460.13;;;8.53;100.00
16777;BME280;8505;49.456;8.164;2024-03-22T00:26:38;100459.16;;;8.45;100.00
16777;BME280;8505;49.456;8.164;2024-03-22T00:29:04;100449.03;;;8.31;100.00
16777;BME280;8505;49.456;8.164;2024-03-22T00:31:31;100457.78;;;8.31;100.00
16777;BME280;8505;49.456;8.164;2024-03-22T00:33:57;100446.91;;;8.25;100.00
16777;BME280;8505;49.456;8.164;2024-03-22T00:36:25;100449.13;;;8.10;100.00
16777;BME280;8505;49.456;8.164;2024-03-22T00:38:51;100448.28;;;8.09;100.00
16777;BME280;8505;49.456;8.164;2024-03-22T00:41:17;100439.41;;;8.10;100.00
16777;BME280;8505;49.456;8.164;2024-03-22T00:43:43;100444.97;;;8.07;100.00
16777;BME280;8505;49.456;8.164;2024-03-22T00:46:10;100438.03;;;8.06;100.00
16777;BME280;8505;49.456;8.164;2024-03-22T00:48:35;100431.78;;;8.07;100.00
16777;BME280;8505;49.456;8.164;2024-03-22T00:51:02;100423.41;;;8.02;100.00
16777;BME280;8505;49.456;8.164;2024-03-22T00:53:30;100422.16;;;7.97;100.00
16777;BME280;8505;49.456;8.164;2024-03-22T00:55:57;100412.16;;;7.91;100.00
16777;BME280;8505;49.456;8.164;2024-03-22T00:58:26;100410.91;;;7.85;100.00
16777;BME280;8505;49.456;8.164;2024-03-22T01:00:52;100410.25;;;7.83;100.00
16777;BME280;8505;49.456;8.164;2024-03-22T01:03:18;100409.78;;;7.68;100.00
16777;BME280;8505;49.456;8.164;2024-03-22T01:05:45;100411.31;;;7.61;100.00
16777;BME280;8505;49.456;8.164;2024-03-22T01:08:11;100408.13;;;7.58;100.00
16777;BME280;8505;49.456;8.164;2024-03-22T01:10:39;100409.09;;;7.57;100.00
16777;BME280;8505;49.456;8.164;2024-03-22T01:13:05;100397.28;;;7.51;100.00
16777;BME280;8505;49.456;8.164;2024-03-22T01:15:32;100392.69;;;7.44;100.00
16777;BME280;8505;49.456;8.164;2024-03-22T01:17:58;100388.50;;;7.41;100.00
16777;BME280;8505;49.456;8.164;2024-03-22T01:20:25;100391.44;;;7.38;100.00
16777;BME280;8505;49.456;8.164;2024-03-22T01:22:51;100382.69;;;7.47;100.00
16777;BME280;8505;49.456;8.164;2024-03-22T01:25:17;100385.75;;;7.43;100.00
16777;BME280;8505;49.456;8.164;2024-03-22T01:27:45;100393.09;;;7.49;100.00
16777;BME280;8505;49.456;8.164;2024-03-22T01:30:12;100388.81;;;7.48;100.00
16777;BME280;8505;49.456;8.164;2024-03-22T01:32:38;100392.44;;;7.47;100.00
16777;BME280;8505;49.456;8.164;2024-03-22T01:35:05;100382.16;;;7.44;100.00
16777;BME280;8505;49.456;8.164;2024-03-22T01:37:30;100376.16;;;7.42;100.00
16777;BME280;8505;49.456;8.164;2024-03-22T01:39:57;100376.47;;;7.39;100.00
16777;BME280;8505;49.456;8.164;2024-03-22T01:42:23;100379.75;;;7.41;100.00
16777;BME280;8505;49.456;8.164;2024-03-22T01:44:51;100382.69;;;7.38;100.00
16777;BME280;8505;49.456;8.164;2024-03-22T01:47:17;100380.88;;;7.38;100.00
16777;BME280;8505;49.456;8.164;2024-03-22T01:49:44;100386.56;;;7.34;100.00
16777;BME280;8505;49.456;8.164;2024-03-22T01:52:10;100387.53;;;7.32;100.00
16777;BME280;8505;49.456;8.164;2024-03-22T01:54:36;100377.97;;;7.31;100.00
16777;BME280;8505;49.456;8.164;2024-03-22T01:57:02;100374.91;;;7.26;100.00
16777;BME280;8505;49.456;8.164;2024-03-22T01:59:30;100378.63;;;7.24;100.00
16777;BME280;8505;49.456;8.164;2024-03-22T02:01:57;100382.94;;;7.25;100.00
16777;BME280;8505;49.456;8.164;2024-03-22T02:04:23;100375.03;;;7.25;100.00
16777;BME280;8505;49.456;8.164;2024-03-22T02:06:49;100375.16;;;7.23;100.00
16777;BME280;8505;49.456;8.164;2024-03-22T02:09:16;100377.22;;;7.20;100.00
16777;BME280;8505;49.456;8.164;2024-03-22T02:11:42;100375.44;;;7.20;100.00
16777;BME280;8505;49.456;8.164;2024-03-22T02:14:09;100367.25;;;7.14;100.00
16777;BME280;8505;49.456;8.164;2024-03-22T02:16:35;100367.78;;;7.17;100.00
16777;BME280;8505;49.456;8.164;2024-03-22T02:19:03;100368.75;;;7.16;100.00
16777;BME280;8505;49.456;8.164;2024-03-22T02:21:29;100370.41;;;7.17;100.00
16777;BME280;8505;49.456;8.164;2024-03-22T02:23:57;100368.91;;;7.15;100.00
16777;BME280;8505;49.456;8.164;2024-03-22T02:26:23;100370.97;;;7.11;100.00
16777;BME280;8505;49.456;8.164;2024-03-22T02:28:50;100365.25;;;7.06;100.00
16777;BME280;8505;49.456;8.164;2024-03-22T02:31:15;100360.72;;;7.08;100.00
16777;BME280;8505;49.456;8.164;2024-03-22T02:33:42;100354.31;;;7.01;100.00
16777;BME280;8505;49.456;8.164;2024-03-22T02:36:08;100354.31;;;7.01;100.00
16777;BME280;8505;49.456;8.164;2024-03-22T02:38:35;100349.28;;;6.98;100.00
16777;BME280;8505;49.456;8.164;2024-03-22T02:41:02;100347.72;;;6.86;100.00
16777;BME280;8505;49.456;8.164;2024-03-22T02:43:29;100348.72;;;6.85;100.00
16777;BME280;8505;49.456;8.164;2024-03-22T02:45:55;100341.72;;;6.74;100.00
16777;BME280;8505;49.456;8.164;2024-03-22T02:48:21;100344.22;;;6.76;100.00
16777;BME280;8505;49.456;8.164;2024-03-22T02:50:47;100342.13;;;6.70;100.00
16777;BME280;8505;49.456;8.164;2024-03-22T02:53:14;100342.78;;;6.62;100.00
16777;BME280;8505;49.456;8.164;2024-03-22T02:55:40;100343.88;;;6.60;100.00
16777;BME280;8505;49.456;8.164;2024-03-22T02:58:09;100332.38;;;6.61;100.00
16777;BME280;8505;49.456;8.164;2024-03-22T03:00:36;100333.34;;;6.60;100.00
16777;BME280;8505;49.456;8.164;2024-03-22T03:03:04;100325.41;;;6.50;100.00
16777;BME280;8505;49.456;8.164;2024-03-22T03:05:30;100317.81;;;6.57;100.00
16777;BME280;8505;49.456;8.164;2024-03-22T03:07:57;100312.31;;;6.60;100.00
16777;BME280;8505;49.456;8.164;2024-03-22T03:10:23;100301.19;;;6.56;100.00
16777;BME280;8505;49.456;8.164;2024-03-22T03:12:50;100304.41;;;6.60;100.00
16777;BME280;8505;49.456;8.164;2024-03-22T03:15:17;100302.63;;;6.60;100.00
16777;BME280;8505;49.456;8.164;2024-03-22T03:17:44;100308.00;;;6.59;100.00
16777;BME280;8505;49.456;8.164;2024-03-22T03:20:11;100307.28;;;6.57;100.00
16777;BME280;8505;49.456;8.164;2024-03-22T03:22:39;100312.56;;;6.57;100.00
16777;BME280;8505;49.456;8.164;2024-03-22T03:25:05;100314.94;;;6.60;100.00
16777;BME280;8505;49.456;8.164;2024-03-22T03:27:32;100318.09;;;6.54;100.00
16777;BME280;8505;49.456;8.164;2024-03-22T03:29:58;100329.59;;;6.53;100.00
16777;BME280;8505;49.456;8.164;2024-03-22T03:32:26;100319.50;;;6.58;100.00
16777;BME280;8505;49.456;8.164;2024-03-22T03:34:52;100323.59;;;6.50;100.00
16777;BME280;8505;49.456;8.164;2024-03-22T03:37:19;100316.66;;;6.49;100.00
16777;BME280;8505;49.456;8.164;2024-03-22T03:39:44;100314.84;;;6.40;100.00
16777;BME280;8505;49.456;8.164;2024-03-22T03:42:11;100302.88;;;6.57;100.00
16777;BME280;8505;49.456;8.164;2024-03-22T03:44:37;100304.34;;;6.50;100.00
16777;BME280;8505;49.456;8.164;2024-03-22T03:47:04;100312.66;;;6.45;100.00
16777;BME280;8505;49.456;8.164;2024-03-22T03:49:31;100299.50;;;6.45;100.00
16777;BME280;8505;49.456;8.164;2024-03-22T03:51:58;100298.34;;;6.38;100.00
16777;BME280;8505;49.456;8.164;2024-03-22T03:54:24;100299.31;;;6.37;100.00
16777;BME280;8505;49.456;8.164;2024-03-22T03:56:50;100300.72;;;6.41;100.00
16777;BME280;8505;49.456;8.164;2024-03-22T03:59:16;100300.34;;;6.46;100.00
16777;BME280;8505;49.456;8.164;2024-03-22T04:01:43;100290.16;;;6.62;100.00
16777;BME280;8505;49.456;8.164;2024-03-22T04:04:09;100280.75;;;6.60;100.00
16777;BME280;8505;49.456;8.164;2024-03-22T04:06:37;100290.03;;;6.73;100.00
16777;BME280;8505;49.456;8.164;2024-03-22T04:09:03;100277.47;;;6.77;100.00
16777;BME280;8505;49.456;8.164;2024-03-22T04:11:31;100283.88;;;6.84;100.00
16777;BME280;8505;49.456;8.164;2024-03-22T04:13:57;100282.63;;;6.88;100.00
16777;BME280;8505;49.456;8.164;2024-03-22T04:16:23;100277.53;;;6.96;100.00
16777;BME280;8505;49.456;8.164;2024-03-22T04:18:49;100290.81;;;6.95;100.00
16777;BME280;8505;49.456;8.164;2024-03-22T04:21:17;100287.22;;;6.96;100.00
16777;BME280;8505;49.456;8.164;2024-03-22T04:23:44;100282.50;;;6.89;100.00
16777;BME280;8505;49.456;8.164;2024-03-22T04:26:10;100282.19;;;6.83;100.00
16777;BME280;8505;49.456;8.164;2024-03-22T04:28:36;100278.44;;;6.85;100.00
16777;BME280;8505;49.456;8.164;2024-03-22T04:31:04;100280.94;;;6.77;100.00
16777;BME280;8505;49.456;8.164;2024-03-22T04:33:32;100273.72;;;6.79;100.00
16777;BME280;8505;49.456;8.164;2024-03-22T04:36:00;100270.13;;;6.80;100.00
16777;BME280;8505;49.456;8.164;2024-03-22T04:38:26;100265.69;;;6.71;100.00
16777;BME280;8505;49.456;8.164;2024-03-22T04:40:55;100266.06;;;6.67;100.00
16777;BME280;8505;49.456;8.164;2024-03-22T04:43:22;100266.75;;;6.59;100.00
16777;BME280;8505;49.456;8.164;2024-03-22T04:45:50;100259.22;;;6.55;100.00
16777;BME280;8505;49.456;8.164;2024-03-22T04:48:17;100273.94;;;6.57;100.00
16777;BME280;8505;49.456;8.164;2024-03-22T04:50:44;100266.16;;;6.56;100.00
16777;BME280;8505;49.456;8.164;2024-03-22T04:53:10;100267.66;;;6.48;100.00
16777;BME280;8505;49.456;8.164;2024-03-22T04:55:37;100268.75;;;6.46;100.00
16777;BME280;8505;49.456;8.164;2024-03-22T04:58:04;100270.13;;;6.40;100.00
16777;BME280;8505;49.456;8.164;2024-03-22T05:00:31;100275.63;;;6.37;100.00
16777;BME280;8505;49.456;8.164;2024-03-22T05:02:57;100275.19;;;6.32;100.00
16777;BME280;8505;49.456;8.164;2024-03-22T05:05:24;100270.50;;;6.36;100.00
16777;BME280;8505;49.456;8.164;2024-03-22T05:07:50;100268.28;;;6.31;100.00
16777;BME280;8505;49.456;8.164;2024-03-22T05:10:17;100263.00;;;6.31;100.00
16777;BME280;8505;49.456;8.164;2024-03-22T05:12:43;100257.63;;;6.33;100.00
16777;BME280;8505;49.456;8.164;2024-03-22T05:15:11;100257.63;;;6.33;100.00
16777;BME280;8505;49.456;8.164;2024-03-22T05:17:37;100261.34;;;6.30;100.00
16777;BME280;8505;49.456;8.164;2024-03-22T05:20:06;100265.22;;;6.26;100.00
16777;BME280;8505;49.456;8.164;2024-03-22T05:22:34;100266.16;;;6.25;100.00
16777;BME280;8505;49.456;8.164;2024-03-22T05:25:03;100258.97;;;6.27;100.00
16777;BME280;8505;49.456;8.164;2024-03-22T05:27:30;100257.75;;;6.31;100.00
16777;BME280;8505;49.456;8.164;2024-03-22T05:29:58;100267.06;;;6.35;100.00
16777;BME280;8505;49.456;8.164;2024-03-22T05:32:26;100265.22;;;6.26;100.00
16777;BME280;8505;49.456;8.164;2024-03-22T05:34:54;100260.22;;;6.23;100.00
16777;BME280;8505;49.456;8.164;2024-03-22T05:37:20;100265.59;;;6.22;100.00
16777;BME280;8505;49.456;8.164;2024-03-22T05:39:47;100269.91;;;6.23;100.00
16777;BME280;8505;49.456;8.164;2024-03-22T05:42:13;100260.50;;;6.30;100.00
16777;BME280;8505;49.456;8.164;2024-03-22T05:44:40;100264.81;;;6.31;100.00
16777;BME280;8505;49.456;8.164;2024-03-22T05:47:06;100262.19;;;6.31;100.00
16777;BME280;8505;49.456;8.164;2024-03-22T05:49:34;100254.34;;;6.40;100.00
16777;BME280;8505;49.456;8.164;2024-03-22T05:52:00;100249.38;;;6.47;100.00
16777;BME280;8505;49.456;8.164;2024-03-22T05:54:27;100243.38;;;6.66;100.00
16777;BME280;8505;49.456;8.164;2024-03-22T05:56:55;100241.88;;;6.92;100.00
16777;BME280;8505;49.456;8.164;2024-03-22T05:59:26;100240.41;;;7.18;100.00
16777;BME280;8505;49.456;8.164;2024-03-22T06:01:53;100240.28;;;7.49;100.00
16777;BME280;8505;49.456;8.164;2024-03-22T06:04:20;100238.75;;;7.75;100.00
16777;BME280;8505;49.456;8.164;2024-03-22T06:06:47;100233.97;;;8.07;100.00
16777;BME280;8505;49.456;8.164;2024-03-22T06:09:15;100233.50;;;8.31;100.00
16777;BME280;8505;49.456;8.164;2024-03-22T06:11:49;100228.78;;;8.62;100.00
16777;BME280;8505;49.456;8.164;2024-03-22T06:14:15;100233.25;;;8.79;99.09
16777;BME280;8505;49.456;8.164;2024-03-22T06:16:41;100235.53;;;8.74;99.14
16777;BME280;8505;49.456;8.164;2024-03-22T06:19:08;100231.59;;;8.78;99.04
16777;BME280;8505;49.456;8.164;2024-03-22T06:21:34;100231.84;;;8.85;98.57
16777;BME280;8505;49.456;8.164;2024-03-22T06:24:02;100225.22;;;8.99;97.13
16777;BME280;8505;49.456;8.164;2024-03-22T06:26:29;100222.06;;;9.13;96.88
16777;BME280;8505;49.456;8.164;2024-03-22T06:28:55;100219.72;;;9.27;95.86
16777;BME280;8505;49.456;8.164;2024-03-22T06:31:21;100211.50;;;9.48;95.15
16777;BME280;8505;49.456;8.164;2024-03-22T06:33:48;100218.28;;;9.68;93.87
16777;BME280;8505;49.456;8.164;2024-03-22T06:36:14;100215.84;;;9.75;93.43
16777;BME280;8505;49.456;8.164;2024-03-22T06:38:40;100219.22;;;9.85;92.94
16777;BME280;8505;49.456;8.164;2024-03-22T06:41:08;100216.41;;;9.87;92.74
16777;BME280;8505;49.456;8.164;2024-03-22T06:43:34;100209.97;;;10.15;91.13
16777;BME280;8505;49.456;8.164;2024-03-22T06:46:00;100204.97;;;10.38;90.03
16777;BME280;8505;49.456;8.164;2024-03-22T06:48:27;100200.13;;;10.59;88.43
16777;BME280;8505;49.456;8.164;2024-03-22T06:50:52;100197.50;;;10.75;87.35
16777;BME280;8505;49.456;8.164;2024-03-22T06:53:19;100193.28;;;11.07;86.01
16777;BME280;8505;49.456;8.164;2024-03-22T06:55:45;100189.31;;;11.03;85.51
16777;BME280;8505;49.456;8.164;2024-03-22T06:58:13;100195.53;;;10.77;86.46
16777;BME280;8505;49.456;8.164;2024-03-22T07:00:39;100183.72;;;10.64;87.18
16777;BME280;8505;49.456;8.164;2024-03-22T07:03:05;100184.91;;;10.61;87.54
16777;BME280;8505;49.456;8.164;2024-03-22T07:05:31;100192.03;;;10.61;87.63
16777;BME280;8505;49.456;8.164;2024-03-22T07:07:58;100180.94;;;10.65;87.46
16777;BME280;8505;49.456;8.164;2024-03-22T07:10:24;100186.59;;;10.78;87.04
16777;BME280;8505;49.456;8.164;2024-03-22T07:12:54;100180.00;;;10.90;86.64
16777;BME280;8505;49.456;8.164;2024-03-22T07:15:23;100181.19;;;11.12;85.72
16777;BME280;8505;49.456;8.164;2024-03-22T07:17:50;100172.94;;;11.31;84.43
16777;BME280;8505;49.456;8.164;2024-03-22T07:20:16;100171.75;;;11.42;84.03
16777;BME280;8505;49.456;8.164;2024-03-22T07:22:43;100165.16;;;11.46;83.66
16777;BME280;8505;49.456;8.164;2024-03-22T07:25:09;100167.13;;;11.52;83.36
16777;BME280;8505;49.456;8.164;2024-03-22T07:27:36;100170.63;;;11.53;83.13
16777;BME280;8505;49.456;8.164;2024-03-22T07:30:02;100165.63;;;11.58;83.08
16777;BME280;8505;49.456;8.164;2024-03-22T07:32:30;100169.91;;;11.67;82.46
16777;BME280;8505;49.456;8.164;2024-03-22T07:34:57;100163.66;;;11.84;82.22
16777;BME280;8505;49.456;8.164;2024-03-22T07:37:24;100160.63;;;11.95;81.23
16777;BME280;8505;49.456;8.164;2024-03-22T07:39:49;100158.22;;;12.16;80.59
16777;BME280;8505;49.456;8.164;2024-03-22T07:42:16;100161.69;;;12.25;79.52
16777;BME280;8505;49.456;8.164;2024-03-22T07:44:42;100159.84;;;12.34;79.23
16777;BME280;8505;49.456;8.164;2024-03-22T07:47:09;100161.16;;;12.38;79.79
16777;BME280;8505;49.456;8.164;2024-03-22T07:49:36;100157.00;;;12.35;79.44
16777;BME280;8505;49.456;8.164;2024-03-22T07:52:03;100156.13;;;12.43;79.15
16777;BME280;8505;49.456;8.164;2024-03-22T07:54:30;100156.44;;;12.48;78.51
16777;BME280;8505;49.456;8.164;2024-03-22T07:56:57;100154.28;;;12.51;78.63
16777;BME280;8505;49.456;8.164;2024-03-22T07:59:23;100157.41;;;12.55;78.69
16777;BME280;8505;49.456;8.164;2024-03-22T08:01:50;100151.94;;;12.56;78.38
16777;BME280;8505;49.456;8.164;2024-03-22T08:04:16;100155.88;;;12.61;77.98
16777;BME280;8505;49.456;8.164;2024-03-22T08:06:45;100149.28;;;12.56;78.24
16777;BME280;8505;49.456;8.164;2024-03-22T08:09:11;100156.38;;;12.64;78.06
16777;BME280;8505;49.456;8.164;2024-03-22T08:11:37;100143.16;;;12.79;78.67
16777;BME280;8505;49.456;8.164;2024-03-22T08:14:03;100141.00;;;13.05;79.32
16777;BME280;8505;49.456;8.164;2024-03-22T08:16:30;100138.69;;;13.02;76.07
16777;BME280;8505;49.456;8.164;2024-03-22T08:18:56;100133.19;;;13.04;76.10
16777;BME280;8505;49.456;8.164;2024-03-22T08:21:22;100134.00;;;13.12;76.04
16777;BME280;8505;49.456;8.164;2024-03-22T08:23:50;100135.66;;;13.13;76.62
16777;BME280;8505;49.456;8.164;2024-03-22T08:26:17;100132.31;;;13.11;77.33
16777;BME280;8505;49.456;8.164;2024-03-22T08:28:43;100134.94;;;13.19;76.67
16777;BME280;8505;49.456;8.164;2024-03-22T08:31:10;100131.16;;;13.14;77.36
16777;BME280;8505;49.456;8.164;2024-03-22T08:33:36;100133.56;;;13.23;77.04
16777;BME280;8505;49.456;8.164;2024-03-22T08:36:03;100127.38;;;13.31;76.90
16777;BME280;8505;49.456;8.164;2024-03-22T08:38:28;100127.47;;;13.15;79.50
16777;BME280;8505;49.456;8.164;2024-03-22T08:40:57;100131.63;;;13.17;81.25
16777;BME280;8505;49.456;8.164;2024-03-22T08:43:22;100130.75;;;13.25;80.89
16777;BME280;8505;49.456;8.164;2024-03-22T08:45:51;100123.25;;;12.97;82.77
16777;BME280;8505;49.456;8.164;2024-03-22T08:48:17;100123.63;;;12.94;83.02
16777;BME280;8505;49.456;8.164;2024-03-22T08:50:44;100122.84;;;13.09;82.43
16777;BME280;8505;49.456;8.164;2024-03-22T08:53:10;100113.56;;;13.27;82.09
16777;BME280;8505;49.456;8.164;2024-03-22T08:55:36;100110.78;;;13.44;81.12
16777;BME280;8505;49.456;8.164;2024-03-22T08:58:04;100111.84;;;13.57;80.07
16777;BME280;8505;49.456;8.164;2024-03-22T09:00:30;100109.97;;;12.97;82.56
16777;BME280;8505;49.456;8.164;2024-03-22T09:02:56;100110.91;;;13.27;81.46
16777;BME280;8505;49.456;8.164;2024-03-22T09:05:23;100106.16;;;13.23;83.70
16777;BME280;8505;49.456;8.164;2024-03-22T09:07:49;100100.00;;;13.22;83.88
16777;BME280;8505;49.456;8.164;2024-03-22T09:10:18;100104.84;;;13.56;83.37
16777;BME280;8505;49.456;8.164;2024-03-22T09:12:44;100095.41;;;13.68;82.22
16777;BME280;8505;49.456;8.164;2024-03-22T09:15:12;100095.94;;;13.78;81.35
16777;BME280;8505;49.456;8.164;2024-03-22T09:17:38;100100.81;;;13.60;86.15
16777;BME280;8505;49.456;8.164;2024-03-22T09:20:06;100098.72;;;13.85;85.79
16777;BME280;8505;49.456;8.164;2024-03-22T09:22:33;100096.31;;;13.90;83.96
16777;BME280;8505;49.456;8.164;2024-03-22T09:25:00;100086.75;;;13.96;83.88
16777;BME280;8505;49.456;8.164;2024-03-22T09:27:25;100082.25;;;14.11;82.40
16777;BME280;8505;49.456;8.164;2024-03-22T09:29:52;100076.97;;;14.32;81.81
16777;BME280;8505;49.456;8.164;2024-03-22T09:32:19;100081.31;;;14.33;81.78
16777;BME280;8505;49.456;8.164;2024-03-22T09:34:49;100072.16;;;14.57;80.99
16777;BME280;8505;49.456;8.164;2024-03-22T09:37:15;100068.97;;;14.62;80.32
16777;BME280;8505;49.456;8.164;2024-03-22T09:39:43;100066.81;;;14.93;77.72
16777;BME280;8505;49.456;8.164;2024-03-22T09:42:12;100071.94;;;14.94;76.99
16777;BME280;8505;49.456;8.164;2024-03-22T09:44:51;100060.47;;;15.22;77.47
16777;BME280;8505;49.456;8.164;2024-03-22T09:47:18;100062.66;;;15.39;74.28
16777;BME280;8505;49.456;8.164;2024-03-22T09:49:48;100049.56;;;15.45;75.79
16777;BME280;8505;49.456;8.164;2024-03-22T09:52:15;100056.03;;;15.29;73.81
16777;BME280;8505;49.456;8.164;2024-03-22T09:54:44;100049.56;;;15.17;75.41
16777;BME280;8505;49.456;8.164;2024-03-22T09:57:13;100044.88;;;14.97;77.09
16777;BME280;8505;49.456;8.164;2024-03-22T09:59:41;100045.63;;;15.68;75.48
16777;BME280;8505;49.456;8.164;2024-03-22T10:02:09;100043.72;;;15.97;74.02
16777;BME280;8505;49.456;8.164;2024-03-22T10:04:37;100038.50;;;16.23;72.78
16777;BME280;8505;49.456;8.164;2024-03-22T10:07:04;100034.47;;;15.99;72.51
16777;BME280;8505;49.456;8.164;2024-03-22T10:09:32;100027.91;;;15.95;72.83
16777;BME280;8505;49.456;8.164;2024-03-22T10:11:58;100022.91;;;15.79;69.30
16777;BME280;8505;49.456;8.164;2024-03-22T10:14:25;100019.56;;;15.70;67.27
16777;BME280;8505;49.456;8.164;2024-03-22T10:16:52;100016.91;;;15.77;67.54
16777;BME280;8505;49.456;8.164;2024-03-22T10:19:20;100017.03;;;16.03;67.06
16777;BME280;8505;49.456;8.164;2024-03-22T10:21:47;100010.91;;;16.09;69.13
16777;BME280;8505;49.456;8.164;2024-03-22T10:24:16;100005.19;;;16.26;70.37
16777;BME280;8505;49.456;8.164;2024-03-22T10:26:41;100011.38;;;16.33;69.97
16777;BME280;8505;49.456;8.164;2024-03-22T10:29:11;99992.47;;;16.34;70.48
16777;BME280;8505;49.456;8.164;2024-03-22T10:31:38;100000.81;;;16.11;68.81
16777;BME280;8505;49.456;8.164;2024-03-22T10:34:07;99999.69;;;16.40;68.09
16777;BME280;8505;49.456;8.164;2024-03-22T10:36:34;99988.22;;;15.86;68.69
16777;BME280;8505;49.456;8.164;2024-03-22T10:39:02;99991.44;;;16.29;68.39
16777;BME280;8505;49.456;8.164;2024-03-22T10:41:30;99983.03;;;16.45;67.48
16777;BME280;8505;49.456;8.164;2024-03-22T10:43:57;99980.97;;;16.47;68.02
16777;BME280;8505;49.456;8.164;2024-03-22T10:46:29;99974.03;;;16.72;67.12
16777;BME280;8505;49.456;8.164;2024-03-22T10:48:57;99970.75;;;16.96;65.86
16777;BME280;8505;49.456;8.164;2024-03-22T10:51:24;99963.50;;;17.17;63.76
16777;BME280;8505;49.456;8.164;2024-03-22T10:53:53;99957.56;;;17.08;61.87
16777;BME280;8505;49.456;8.164;2024-03-22T10:56:21;99953.44;;;16.99;60.74
16777;BME280;8505;49.456;8.164;2024-03-22T10:58:50;99953.25;;;16.87;59.74
16777;BME280;8505;49.456;8.164;2024-03-22T11:01:24;99950.09;;;17.23;59.10
16777;BME280;8505;49.456;8.164;2024-03-22T11:03:51;99941.50;;;17.08;58.34
16777;BME280;8505;49.456;8.164;2024-03-22T11:06:30;99933.09;;;17.75;58.01
16777;BME280;8505;49.456;8.164;2024-03-22T11:08:59;99926.75;;;17.57;58.13
16777;BME280;8505;49.456;8.164;2024-03-22T11:11:28;99929.44;;;17.63;56.83
16777;BME280;8505;49.456;8.164;2024-03-22T11:13:56;99913.22;;;18.21;55.25
16777;BME280;8505;49.456;8.164;2024-03-22T11:16:22;99909.38;;;18.42;54.53
16777;BME280;8505;49.456;8.164;2024-03-22T11:18:49;99906.53;;;18.05;55.73
16777;BME280;8505;49.456;8.164;2024-03-22T11:21:15;99903.81;;;18.43;56.79
16777;BME280;8505;49.456;8.164;2024-03-22T11:23:45;99898.97;;;18.27;56.00
16777;BME280;8505;49.456;8.164;2024-03-22T11:26:11;99895.03;;;18.30;55.90
16777;BME280;8505;49.456;8.164;2024-03-22T11:28:38;99898.81;;;18.47;54.91
16777;BME280;8505;49.456;8.164;2024-03-22T11:31:05;99883.56;;;18.16;55.31
16777;BME280;8505;49.456;8.164;2024-03-22T11:33:32;99883.13;;;18.26;54.97
16777;BME280;8505;49.456;8.164;2024-03-22T11:35:58;99883.50;;;18.29;54.29
16777;BME280;8505;49.456;8.164;2024-03-22T11:38:26;99875.28;;;18.24;54.23
16777;BME280;8505;49.456;8.164;2024-03-22T11:40:52;99868.06;;;18.25;53.88
16777;BME280;8505;49.456;8.164;2024-03-22T11:43:21;99868.88;;;18.50;53.68
16777;BME280;8505;49.456;8.164;2024-03-22T11:45:47;99871.41;;;18.45;53.45
16777;BME280;8505;49.456;8.164;2024-03-22T11:48:15;99857.53;;;18.23;54.36
16777;BME280;8505;49.456;8.164;2024-03-22T11:50:41;99857.50;;;18.54;53.36
16777;BME280;8505;49.456;8.164;2024-03-22T11:53:08;99852.19;;;18.48;52.90
16777;BME280;8505;49.456;8.164;2024-03-22T11:55:35;99841.09;;;18.44;53.61
16777;BME280;8505;49.456;8.164;2024-03-22T11:58:03;99835.78;;;18.63;52.63
16777;BME280;8505;49.456;8.164;2024-03-22T12:00:28;99841.03;;;18.51;53.82
16777;BME280;8505;49.456;8.164;2024-03-22T12:02:55;99835.66;;;18.76;53.34
16777;BME280;8505;49.456;8.164;2024-03-22T12:05:22;99833.72;;;19.01;52.75
16777;BME280;8505;49.456;8.164;2024-03-22T12:07:51;99823.16;;;18.88;52.97
16777;BME280;8505;49.456;8.164;2024-03-22T12:10:17;99822.63;;;18.97;52.14
16777;BME280;8505;49.456;8.164;2024-03-22T12:12:43;99812.09;;;18.96;52.11
16777;BME280;8505;49.456;8.164;2024-03-22T12:15:09;99819.31;;;18.77;52.63
16777;BME280;8505;49.456;8.164;2024-03-22T12:17:36;99814.50;;;19.04;51.20
16777;BME280;8505;49.456;8.164;2024-03-22T12:20:03;99806.44;;;19.22;51.31
16777;BME280;8505;49.456;8.164;2024-03-22T12:22:31;99800.91;;;19.17;50.35
16777;BME280;8505;49.456;8.164;2024-03-22T12:24:57;99794.88;;;19.22;50.48
16777;BME280;8505;49.456;8.164;2024-03-22T12:27:25;99788.22;;;19.84;48.57
16777;BME280;8505;49.456;8.164;2024-03-22T12:29:50;99786.22;;;20.33;49.09
16777;BME280;8505;49.456;8.164;2024-03-22T12:32:17;99787.84;;;20.57;47.44
16777;BME280;8505;49.456;8.164;2024-03-22T12:34:43;99790.09;;;20.48;47.73
16777;BME280;8505;49.456;8.164;2024-03-22T12:37:10;99782.09;;;21.40;45.50
16777;BME280;8505;49.456;8.164;2024-03-22T12:39:37;99772.59;;;20.97;45.46
16777;BME280;8505;49.456;8.164;2024-03-22T12:42:04;99767.88;;;21.05;45.66
16777;BME280;8505;49.456;8.164;2024-03-22T12:44:31;99767.47;;;21.24;44.51
16777;BME280;8505;49.456;8.164;2024-03-22T12:46:57;99769.00;;;20.10;43.04
16777;BME280;8505;49.456;8.164;2024-03-22T12:49:24;99772.28;;;19.59;44.62
16777;BME280;8505;49.456;8.164;2024-03-22T12:51:51;99768.09;;;19.75;44.30
16777;BME280;8505;49.456;8.164;2024-03-22T12:54:17;99757.78;;;19.60;44.27
16777;BME280;8505;49.456;8.164;2024-03-22T12:56:45;99760.59;;;19.65;45.25
16777;BME280;8505;49.456;8.164;2024-03-22T12:59:11;99751.66;;;19.83;45.54
16777;BME280;8505;49.456;8.164;2024-03-22T13:01:38;99752.25;;;19.97;45.47